Time;durP1;ratioP1;P1;durP2;ratioP2;P2;SDS_P1;SDS_P2;PMS_P1;PMS_P2;Temp;Humidity;BMP_temperature;BMP_pressure;BME280_temperature;BME280_humidity;BME280_pressure;Samples;Min_cycle;Max_cycle;Signal;HPM_P1;HPM_P2
2022/04/09 00:04:56;;;;;;;10.32;4.38;;;;;;;0.54;89.89;100253.00;10425300;28;20033;-83
2022/04/09 00:09:57;;;;;;;12.45;4.68;;;;;;;0.54;90.74;100263.28;10446879;28;20107;-83
2022/04/09 00:14:57;;;;;;;12.02;5.78;;;;;;;0.56;89.96;100266.00;10392754;28;20033;-83
2022/04/09 00:19:58;;;;;;;17.52;5.20;;;;;;;0.55;90.83;100275.38;10385401;28;20033;-83
2022/04/09 00:24:59;;;;;;;22.35;5.60;;;;;;;0.60;90.48;100280.00;10430240;28;20134;-83
2022/04/09 00:29:59;;;;;;;12.27;6.25;;;;;;;0.71;90.28;100295.53;10427540;28;20041;-84
2022/04/09 00:35:00;;;;;;;13.45;6.38;;;;;;;0.69;90.47;100303.91;10357103;28;20036;-83
2022/04/09 00:40:01;;;;;;;14.18;5.38;;;;;;;0.72;90.28;100309.28;10387910;28;20037;-84
2022/04/09 00:45:01;;;;;;;22.80;7.18;;;;;;;0.73;90.48;100319.72;10466999;28;20523;-83
2022/04/09 00:50:06;;;;;;;19.80;6.88;;;;;;;0.66;90.56;100330.31;10451796;28;20036;-80
2022/04/09 00:55:09;;;;;;;25.90;5.65;;;;;;;0.66;90.75;100342.28;10449813;28;20043;-79
2022/04/09 01:00:10;;;;;;;12.48;6.32;;;;;;;0.68;90.28;100341.66;10432648;28;20451;-80
2022/04/09 01:05:13;;;;;;;27.58;7.25;;;;;;;0.73;90.86;100348.06;10473201;28;20036;-79
2022/04/09 01:10:13;;;;;;;19.67;6.10;;;;;;;0.87;89.81;100363.72;10449163;28;20029;-80
2022/04/09 01:15:14;;;;;;;14.65;5.95;;;;;;;0.87;89.93;100381.75;10452266;28;20113;-79
2022/04/09 01:20:18;;;;;;;16.27;5.50;;;;;;;0.87;89.75;100398.09;10447070;28;20060;-80
2022/04/09 01:25:25;;;;;;;16.90;4.93;;;;;;;0.90;89.07;100405.19;10465289;28;20040;-80
2022/04/09 01:30:25;;;;;;;16.33;7.72;;;;;;;1.06;89.22;100404.69;10482321;28;20388;-80
2022/04/09 01:35:26;;;;;;;26.48;7.20;;;;;;;1.05;88.53;100417.47;10436507;28;20116;-80
2022/04/09 01:40:26;;;;;;;13.43;5.35;;;;;;;0.92;89.00;100411.34;10446684;28;20032;-79
2022/04/09 01:45:30;;;;;;;16.70;6.05;;;;;;;0.94;88.70;100432.06;10419514;28;20488;-81
2022/04/09 01:50:32;;;;;;;13.07;5.57;;;;;;;1.00;88.54;100442.84;10397887;28;20453;-80
2022/04/09 01:55:35;;;;;;;14.75;5.70;;;;;;;0.91;88.54;100457.59;10415705;28;20037;-80
2022/04/09 02:00:36;;;;;;;13.57;4.80;;;;;;;0.82;88.70;100452.63;10402456;28;20075;-80
2022/04/09 02:05:37;;;;;;;23.77;9.07;;;;;;;0.75;87.92;100470.94;10393726;28;20087;-80
2022/04/09 02:10:37;;;;;;;15.13;6.28;;;;;;;0.67;88.39;100472.88;10396360;28;20037;-80
2022/04/09 02:15:38;;;;;;;22.58;6.43;;;;;;;0.62;89.14;100489.63;10424426;28;20405;-80
2022/04/09 02:20:38;;;;;;;11.02;5.53;;;;;;;0.60;89.11;100491.19;10423354;28;20468;-80
2022/04/09 02:25:38;;;;;;;19.90;5.63;;;;;;;0.56;89.66;100496.09;10426830;28;20044;-80
2022/04/09 02:30:39;;;;;;;18.75;5.28;;;;;;;0.58;89.20;100503.97;10410624;28;20116;-80
2022/04/09 02:35:42;;;;;;;14.63;5.43;;;;;;;0.51;89.96;100515.41;10386247;28;20072;-79
2022/04/09 02:40:50;;;;;;;19.70;6.15;;;;;;;0.40;89.28;100521.34;10424508;28;20060;-80
2022/04/09 02:45:52;;;;;;;20.92;5.88;;;;;;;0.28;90.28;100534.13;10467693;28;20045;-80
2022/04/09 02:50:56;;;;;;;28.15;8.40;;;;;;;0.27;90.10;100540.06;10447885;28;20392;-80
2022/04/09 02:55:58;;;;;;;18.10;8.15;;;;;;;0.13;91.02;100546.59;10475640;28;20040;-80
2022/04/09 03:01:01;;;;;;;16.75;6.72;;;;;;;0.31;91.49;100556.63;10475923;28;20045;-80
2022/04/09 03:06:05;;;;;;;20.63;8.43;;;;;;;0.29;90.65;100553.94;10461494;28;20477;-81
2022/04/09 03:11:11;;;;;;;17.98;7.50;;;;;;;0.28;90.75;100565.03;10475644;28;20048;-80
2022/04/09 03:16:15;;;;;;;20.48;6.65;;;;;;;0.18;91.22;100573.63;10474517;28;20052;-80
2022/04/09 03:21:21;;;;;;;20.33;7.13;;;;;;;0.17;91.44;100582.13;10455780;28;20048;-79
2022/04/09 03:26:28;;;;;;;22.70;7.80;;;;;;;0.16;91.54;100598.34;10483741;28;20098;-82
2022/04/09 03:31:48;;;;;;;23.65;7.75;;;;;;;0.16;91.21;100600.03;10447330;28;20484;-86
2022/04/09 03:36:48;;;;;;;13.90;7.10;;;;;;;0.19;91.31;100606.31;10440996;28;20046;-84
2022/04/09 03:41:49;;;;;;;15.25;6.78;;;;;;;0.33;91.50;100619.47;10459568;28;20502;-83
2022/04/09 03:47:03;;;;;;;14.40;6.03;;;;;;;0.40;91.13;100626.94;10464441;28;20048;-78
2022/04/09 03:52:10;;;;;;;24.45;8.75;;;;;;;0.39;90.23;100626.03;10440912;28;20051;-81
2022/04/09 03:57:11;;;;;;;14.52;5.88;;;;;;;0.43;89.58;100637.47;10457160;28;20025;-83
2022/04/09 04:02:14;;;;;;;26.42;5.35;;;;;;;0.39;89.53;100646.63;10482731;28;20041;-81
2022/04/09 04:07:20;;;;;;;16.50;5.18;;;;;;;0.27;89.40;100640.44;10458487;28;20510;-79
2022/04/09 04:12:21;;;;;;;13.20;5.68;;;;;;;0.17;89.36;100658.44;10465492;28;20529;-79
2022/04/09 04:17:21;;;;;;;15.40;5.60;;;;;;;0.11;90.12;100663.97;10431422;28;20049;-80
2022/04/09 04:22:22;;;;;;;19.90;4.85;;;;;;;0.12;89.76;100670.91;10432194;28;20028;-80
2022/04/09 04:27:25;;;;;;;18.35;6.93;;;;;;;0.04;90.60;100680.56;10402461;28;20060;-81
2022/04/09 04:32:26;;;;;;;23.48;10.77;;;;;;;0.07;91.74;100685.06;10458854;28;20388;-81
2022/04/09 04:37:38;;;;;;;23.03;6.67;;;;;;;0.15;91.29;100686.63;10423825;28;20072;-80
2022/04/09 04:42:39;;;;;;;22.10;7.70;;;;;;;0.09;91.48;100698.97;10451787;28;20059;-81
2022/04/09 04:47:47;;;;;;;16.65;6.90;;;;;;;0.05;92.12;100714.91;10457415;28;20039;-79
2022/04/09 04:52:47;;;;;;;21.05;7.55;;;;;;;-0.04;91.48;100718.47;10408240;28;20041;-79
2022/04/09 04:57:52;;;;;;;20.48;7.25;;;;;;;-0.01;92.40;100741.00;10395606;28;20025;-78
2022/04/09 05:02:53;;;;;;;15.85;6.15;;;;;;;-0.03;92.41;100737.41;10425488;28;20020;-80
2022/04/09 05:07:53;;;;;;;18.13;7.22;;;;;;;0.08;92.69;100752.13;10475918;28;20537;-81
2022/04/09 05:12:54;;;;;;;14.32;4.95;;;;;;;0.05;91.67;100749.28;10427132;28;20064;-81
2022/04/09 05:17:54;;;;;;;25.65;7.35;;;;;;;0.19;92.52;100765.03;10395492;28;20029;-80
2022/04/09 05:22:55;;;;;;;20.60;6.63;;;;;;;0.26;91.19;100768.25;10432390;28;20706;-80
2022/04/09 05:27:55;;;;;;;28.27;10.32;;;;;;;0.54;91.57;100778.38;10393220;28;20055;-81
2022/04/09 05:32:56;;;;;;;13.80;5.15;;;;;;;0.81;90.35;100778.03;10471651;28;20079;-80
2022/04/09 05:37:57;;;;;;;20.75;4.90;;;;;;;1.30;89.50;100773.53;10435009;28;20384;-81
2022/04/09 05:42:57;;;;;;;18.05;6.75;;;;;;;1.72;86.24;100790.75;10450858;28;20068;-80
2022/04/09 05:47:58;;;;;;;25.05;6.70;;;;;;;1.87;85.15;100795.34;10472883;28;20035;-81
2022/04/09 05:52:58;;;;;;;16.95;6.55;;;;;;;2.61;83.44;100802.94;10494711;28;20056;-80
2022/04/09 05:57:59;;;;;;;18.60;5.07;;;;;;;3.29;80.33;100810.72;10457635;28;20041;-81
2022/04/09 06:03:02;;;;;;;21.07;5.53;;;;;;;4.14;77.10;100810.91;10471519;28;20120;-81
2022/04/09 06:08:03;;;;;;;;;;;;;;;5.28;73.60;100817.97;10471227;28;20115;-81
2022/04/09 06:13:05;;;;;;;13.90;5.07;;;;;;;6.35;69.29;100813.69;10482869;28;20291;-81
2022/04/09 06:18:06;;;;;;;11.77;4.43;;;;;;;6.92;66.75;100836.28;10480775;28;20278;-81
2022/04/09 06:23:07;;;;;;;16.25;4.38;;;;;;;5.97;67.69;100841.59;10473394;28;20044;-81
2022/04/09 06:28:09;;;;;;;12.60;4.30;;;;;;;5.59;70.30;100851.22;10441329;28;20037;-81
2022/04/09 06:33:09;;;;;;;14.07;7.18;;;;;;;6.39;68.11;100853.81;10442429;28;20029;-82
2022/04/09 06:38:11;;;;;;;13.23;4.93;;;;;;;7.34;65.76;100863.16;10473923;28;20051;-78
2022/04/09 06:43:13;;;;;;;14.48;6.25;;;;;;;8.46;62.03;100870.47;10453435;28;20471;-80
2022/04/09 06:48:14;;;;;;;13.30;3.80;;;;;;;9.17;59.26;100877.81;10458420;28;20040;-81
2022/04/09 06:53:15;;;;;;;10.75;4.10;;;;;;;9.62;57.93;100882.78;10439865;28;20389;-80
2022/04/09 06:58:17;;;;;;;16.48;5.03;;;;;;;9.84;56.74;100884.75;10463549;28;20058;-81
2022/04/09 07:03:17;;;;;;;7.20;3.58;;;;;;;10.34;55.01;100892.44;10484658;28;20534;-82
2022/04/09 07:08:19;;;;;;;13.75;3.70;;;;;;;10.66;55.79;100885.28;10474976;28;20075;-81
2022/04/09 07:13:20;;;;;;;21.83;4.07;;;;;;;10.66;54.18;100909.75;10478273;28;20097;-81
2022/04/09 07:18:21;;;;;;;11.75;3.42;;;;;;;11.10;53.52;100907.41;10482737;28;20074;-81
2022/04/09 07:23:21;;;;;;;13.57;5.38;;;;;;;10.91;53.85;100912.63;10476006;28;20028;-81
2022/04/09 07:28:24;;;;;;;15.32;3.70;;;;;;;9.09;57.22;100920.06;10473430;28;20365;-81
2022/04/09 07:33:25;;;;;;;13.18;3.55;;;;;;;8.54;59.58;100940.47;10482950;28;20476;-81
2022/04/09 07:38:25;;;;;;;9.20;3.20;;;;;;;8.07;61.30;100943.00;10466883;28;20080;-81
2022/04/09 07:43:26;;;;;;;8.00;3.33;;;;;;;8.96;60.10;100943.72;10441380;28;20124;-82
2022/04/09 07:48:26;;;;;;;13.45;3.67;;;;;;;7.85;62.52;100948.66;10448523;28;20090;-81
2022/04/09 07:53:27;;;;;;;9.65;4.63;;;;;;;7.62;62.88;100943.84;10457788;28;20060;-81
2022/04/09 07:58:27;;;;;;;11.13;4.47;;;;;;;8.13;61.74;100950.28;10444345;28;20081;-81
2022/04/09 08:03:28;;;;;;;18.63;4.00;;;;;;;9.84;58.58;100952.72;10436551;28;20451;-81
2022/04/09 08:08:28;;;;;;;14.73;3.40;;;;;;;8.72;58.81;100974.56;10424112;28;20048;-82
2022/04/09 08:13:29;;;;;;;15.98;3.53;;;;;;;9.29;58.23;100985.53;10405084;28;20029;-81
2022/04/09 08:18:29;;;;;;;28.90;6.78;;;;;;;11.35;54.39;100986.25;10441989;28;20114;-81
2022/04/09 08:23:30;;;;;;;12.63;4.88;;;;;;;11.99;49.83;100976.88;10480746;28;20531;-81
2022/04/09 08:28:31;;;;;;;16.73;5.53;;;;;;;12.70;50.09;100985.13;10454904;28;20063;-82
2022/04/09 08:33:32;;;;;;;10.63;4.37;;;;;;;11.28;52.36;100988.59;10463329;28;20028;-81
2022/04/09 08:38:32;;;;;;;13.43;4.35;;;;;;;12.94;48.29;100989.59;10414004;28;20382;-81
2022/04/09 08:43:33;;;;;;;7.97;3.30;;;;;;;13.49;48.43;100990.84;10449177;28;20083;-82
2022/04/09 08:48:33;;;;;;;11.32;4.88;;;;;;;14.87;44.30;100980.69;10445155;28;20035;-81
2022/04/09 08:53:34;;;;;;;11.15;3.83;;;;;;;12.93;47.43;100999.19;10467871;28;20064;-82
2022/04/09 08:58:34;;;;;;;10.18;3.70;;;;;;;10.81;50.05;101005.56;10407558;28;20021;-82
2022/04/09 09:03:35;;;;;;;16.63;3.97;;;;;;;10.34;50.23;101003.22;10453158;28;20105;-81
2022/04/09 09:08:37;;;;;;;13.80;4.53;;;;;;;11.26;49.79;101003.34;10484455;28;20060;-81
2022/04/09 09:13:51;;;;;;;10.80;4.15;;;;;;;12.09;45.67;101007.06;10455106;28;20027;-81
2022/04/09 09:19:05;;;;;;;10.20;2.92;;;;;;;12.52;45.09;101005.38;10435999;28;20496;-81
2022/04/09 09:24:16;;;;;;;5.20;2.47;;;;;;;12.28;45.32;101009.63;10438424;28;20036;-82
2022/04/09 09:29:27;;;;;;;11.35;2.95;;;;;;;14.66;40.66;101003.72;10489070;28;20037;-82
2022/04/09 09:34:28;;;;;;;6.80;4.23;;;;;;;14.74;39.75;101011.91;10477655;28;20028;-82
2022/04/09 09:39:33;;;;;;;7.50;3.70;;;;;;;12.90;44.60;101017.44;10457933;28;20024;-82
2022/04/09 09:44:41;;;;;;;6.88;3.05;;;;;;;13.82;42.88;101001.66;10459702;28;20047;-81
2022/04/09 09:49:47;;;;;;;10.55;5.13;;;;;;;14.65;39.19;101017.72;10436384;28;20037;-82
2022/04/09 09:55:00;;;;;;;5.75;3.67;;;;;;;14.06;40.52;101014.84;10474749;28;20033;-86
2022/04/09 10:00:04;;;;;;;9.45;3.63;;;;;;;12.69;46.56;101017.47;10468859;28;20072;-83
2022/04/09 10:05:05;;;;;;;7.32;2.10;;;;;;;13.49;41.08;101009.25;10446850;28;20060;-81
2022/04/09 10:10:06;;;;;;;10.85;2.17;;;;;;;14.92;35.89;101010.72;10425685;28;20021;-81
2022/04/09 10:15:07;;;;;;;9.35;2.25;;;;;;;13.02;39.84;101024.03;10453958;28;20492;-80
2022/04/09 10:20:08;;;;;;;5.85;3.00;;;;;;;14.22;39.88;101021.53;10455841;28;20046;-81
2022/04/09 10:25:09;;;;;;;11.25;3.00;;;;;;;14.95;38.10;101010.81;10444948;28;20378;-83
2022/04/09 10:30:14;;;;;;;9.52;5.10;;;;;;;16.09;36.70;101017.72;10434619;28;20120;-82
2022/04/09 10:35:44;;;;;;;4.90;1.70;;;;;;;17.45;33.23;101007.84;10452581;28;20381;-82
2022/04/09 10:40:52;;;;;;;5.20;2.15;;;;;;;18.34;34.34;100999.88;10446148;28;20041;-82
2022/04/09 10:46:02;;;;;;;7.40;2.67;;;;;;;17.80;31.36;101014.72;10462316;28;20060;-83
2022/04/09 10:51:08;;;;;;;4.35;1.80;;;;;;;18.70;32.79;101015.50;10452886;28;20091;-81
2022/04/09 10:56:21;;;;;;;4.43;1.67;;;;;;;14.07;35.32;101020.13;10454075;28;20056;-81
2022/04/09 11:01:47;;;;;;;6.53;1.83;;;;;;;11.33;40.23;101042.94;10435127;28;20041;-81
2022/04/09 11:07:06;;;;;;;5.03;1.40;;;;;;;14.36;38.80;101020.25;10458728;28;20033;-80
2022/04/09 11:12:07;;;;;;;6.05;2.00;;;;;;;12.80;37.96;101019.66;10443038;28;20021;-83
2022/04/09 11:17:14;;;;;;;6.03;1.90;;;;;;;15.48;34.43;101023.84;10429167;28;20028;-81
2022/04/09 11:22:15;;;;;;;6.60;1.83;;;;;;;14.56;34.93;101027.06;10477090;28;20029;-81
2022/04/09 11:27:16;;;;;;;7.53;1.73;;;;;;;14.06;36.32;101007.81;10426038;28;20476;-81
2022/04/09 11:32:18;;;;;;;4.18;1.30;;;;;;;17.46;32.06;101017.56;10479305;28;20105;-81
2022/04/09 11:37:18;;;;;;;3.38;1.00;;;;;;;13.68;34.63;101038.88;10465699;28;20035;-81
2022/04/09 11:42:19;;;;;;;2.15;0.93;;;;;;;10.69;39.00;101081.75;10457817;28;20037;-80
2022/04/09 11:47:23;;;;;;;2.25;1.17;;;;;;;8.13;51.26;101101.50;10440390;28;20124;-79
2022/04/09 11:52:30;;;;;;;2.60;0.95;;;;;;;7.47;57.46;101091.34;10441595;28;20078;-79
2022/04/09 11:57:31;;;;;;;5.13;1.35;;;;;;;12.41;45.10;101081.94;10473795;28;20059;-80
2022/04/09 12:02:31;;;;;;;5.35;1.30;;;;;;;13.36;39.41;101085.81;10442667;28;20425;-80
2022/04/09 12:07:32;;;;;;;3.60;0.80;;;;;;;14.43;38.75;101099.47;10404643;28;20029;-81
2022/04/09 12:12:37;;;;;;;5.97;1.35;;;;;;;11.63;38.78;101092.38;10428983;28;20052;-81
2022/04/09 12:17:38;;;;;;;4.05;0.88;;;;;;;13.53;37.46;101104.03;10442153;28;20025;-80
2022/04/09 12:22:38;;;;;;;1.83;0.50;;;;;;;11.22;36.85;101114.06;10439122;28;20068;-81
2022/04/09 12:27:43;;;;;;;3.00;0.98;;;;;;;9.58;40.72;101118.59;10457669;28;20048;-81
2022/04/09 12:32:45;;;;;;;5.50;0.98;;;;;;;9.44;40.70;101109.97;10421261;28;20132;-81
2022/04/09 12:37:47;;;;;;;5.50;0.90;;;;;;;10.62;40.23;101103.19;10438318;28;20358;-80
2022/04/09 12:42:48;;;;;;;3.83;0.93;;;;;;;15.65;34.31;101085.06;10420460;28;20071;-81
2022/04/09 12:47:57;;;;;;;2.33;0.80;;;;;;;15.77;31.97;101081.88;10471934;28;20511;-81
2022/04/09 12:52:59;;;;;;;3.53;1.10;;;;;;;14.91;32.03;101094.13;10467062;28;20044;-81
2022/04/09 12:58:00;;;;;;;4.57;1.30;;;;;;;12.12;36.18;101104.25;10407045;28;20038;-80
2022/04/09 13:03:01;;;;;;;4.72;1.15;;;;;;;11.11;36.03;101096.91;10414854;28;20080;-81
2022/04/09 13:08:02;;;;;;;6.30;1.05;;;;;;;13.27;35.65;101094.25;10380993;28;20041;-81
2022/04/09 13:13:04;;;;;;;4.68;1.33;;;;;;;12.83;33.83;101091.56;10378813;28;20026;-80
2022/04/09 13:18:05;;;;;;;3.50;1.17;;;;;;;13.67;34.13;101105.47;10395315;28;20036;-81
2022/04/09 13:23:05;;;;;;;3.03;0.98;;;;;;;11.34;36.37;101112.88;10379465;28;20036;-81
2022/04/09 13:28:07;;;;;;;2.05;0.70;;;;;;;10.60;37.77;101125.78;10393446;28;20052;-81
2022/04/09 13:33:07;;;;;;;4.25;1.75;;;;;;;9.90;39.23;101120.38;10378196;28;20036;-82
2022/04/09 13:38:08;;;;;;;5.05;2.50;;;;;;;9.45;39.70;101135.28;10413061;28;20037;-81
2022/04/09 13:43:08;;;;;;;3.83;1.20;;;;;;;9.30;41.47;101137.94;10393900;28;20515;-80
2022/04/09 13:48:10;;;;;;;3.93;0.90;;;;;;;11.22;38.67;101127.16;10412861;28;20474;-81
2022/04/09 13:53:11;;;;;;;6.88;1.63;;;;;;;13.47;35.38;101124.00;10412017;28;20379;-81
2022/04/09 13:58:11;;;;;;;8.80;1.08;;;;;;;14.79;33.39;101122.72;10378571;28;20033;-81
2022/04/09 14:03:12;;;;;;;2.05;1.13;;;;;;;14.04;33.09;101127.03;10394624;28;20048;-83
2022/04/09 14:08:12;;;;;;;5.68;1.48;;;;;;;12.03;35.70;101136.22;10411489;28;20064;-81
2022/04/09 14:13:13;;;;;;;4.07;1.20;;;;;;;10.61;39.92;101144.19;10394323;28;20056;-80
2022/04/09 14:18:13;;;;;;;3.35;0.82;;;;;;;12.32;34.52;101136.66;10377276;28;20515;-81
2022/04/09 14:23:14;;;;;;;5.20;1.27;;;;;;;11.18;39.44;101142.63;10410744;28;20109;-82
2022/04/09 14:28:15;;;;;;;3.83;0.85;;;;;;;13.65;34.19;101136.97;10410747;28;20072;-81
2022/04/09 14:33:16;;;;;;;3.97;1.08;;;;;;;14.98;32.29;101135.66;10393975;28;20026;-82
2022/04/09 14:38:17;;;;;;;5.13;1.15;;;;;;;15.00;33.31;101148.00;10380700;28;20029;-81
2022/04/09 14:43:18;;;;;;;6.37;1.63;;;;;;;15.20;29.51;101152.19;10384619;28;20060;-82
2022/04/09 14:48:19;;;;;;;3.97;0.90;;;;;;;15.36;32.54;101152.69;10386549;28;20125;-81
2022/04/09 14:53:21;;;;;;;2.20;0.90;;;;;;;13.53;31.54;101168.06;10384853;28;20092;-82
2022/04/09 14:58:21;;;;;;;3.45;1.67;;;;;;;12.37;35.23;101163.09;10418182;28;20499;-80
2022/04/09 15:03:22;;;;;;;2.42;1.30;;;;;;;10.98;38.84;101172.25;10418725;28;20032;-81
2022/04/09 15:08:23;;;;;;;5.10;1.65;;;;;;;9.96;41.44;101188.69;10400070;28;20030;-80
2022/04/09 15:13:23;;;;;;;5.70;1.70;;;;;;;10.86;40.75;101172.53;10401647;28;20026;-83
2022/04/09 15:18:24;;;;;;;3.58;1.17;;;;;;;11.09;40.04;101166.66;10384150;28;20029;-83
2022/04/09 15:23:25;;;;;;;4.50;1.17;;;;;;;10.70;41.43;101190.88;10400187;28;20030;-82
2022/04/09 15:28:29;;;;;;;4.65;1.25;;;;;;;10.70;39.71;101193.50;10446430;28;20069;-80
2022/04/09 15:33:29;;;;;;;5.95;1.10;;;;;;;11.07;40.00;101187.53;10412459;28;20021;-81
2022/04/09 15:38:30;;;;;;;8.50;2.55;;;;;;;10.71;40.57;101198.81;10402492;28;20063;-82
2022/04/09 15:43:33;;;;;;;3.08;1.42;;;;;;;10.18;41.37;101204.66;10437679;28;20076;-83
2022/04/09 15:48:35;;;;;;;4.60;1.27;;;;;;;9.70;43.08;101200.31;10401381;28;20447;-90
2022/04/09 15:53:35;;;;;;;4.47;1.30;;;;;;;9.27;42.46;101201.34;10416867;28;20034;-83
2022/04/09 15:58:36;;;;;;;3.85;1.23;;;;;;;9.12;42.86;101209.19;10419466;28;20272;-80
2022/04/09 16:03:37;;;;;;;2.92;1.23;;;;;;;8.86;41.26;101216.38;10418516;28;20531;-80
2022/04/09 16:08:38;;;;;;;2.90;1.73;;;;;;;8.86;41.34;101216.38;10381475;28;20068;-82
2022/04/09 16:13:38;;;;;;;8.50;2.70;;;;;;;8.59;41.80;101223.41;10400248;28;20320;-81
2022/04/09 16:18:39;;;;;;;2.58;1.23;;;;;;;8.51;42.13;101238.63;10452739;28;20057;-81
2022/04/09 16:23:39;;;;;;;7.50;2.97;;;;;;;8.56;43.57;101239.78;10399194;28;20068;-83
2022/04/09 16:28:40;;;;;;;1.63;1.23;;;;;;;8.79;41.55;101233.34;10429060;28;20060;-83
2022/04/09 16:33:41;;;;;;;4.40;3.50;;;;;;;8.79;42.28;101235.09;10439605;28;20049;-82
2022/04/09 16:38:41;;;;;;;6.75;2.45;;;;;;;8.57;43.36;101251.13;10456923;28;20029;-82
2022/04/09 16:43:42;;;;;;;3.00;1.55;;;;;;;8.20;43.45;101252.31;10467999;28;20086;-84
2022/04/09 16:48:43;;;;;;;4.07;2.08;;;;;;;7.90;43.80;101254.75;10480062;28;20062;-85
2022/04/09 16:53:44;;;;;;;3.53;1.43;;;;;;;7.78;44.44;101263.56;10466220;28;20029;-84
2022/04/09 16:58:44;;;;;;;5.13;2.13;;;;;;;7.62;45.78;101260.75;10453505;28;20125;-85
2022/04/09 17:03:45;;;;;;;2.20;1.67;;;;;;;7.40;46.42;101272.38;10432741;28;20437;-80
2022/04/09 17:08:46;;;;;;;5.50;2.15;;;;;;;7.31;46.69;101272.63;10430638;28;20044;-82
2022/04/09 17:13:49;;;;;;;3.50;1.08;;;;;;;7.12;49.02;101286.13;10433842;28;20039;-83
2022/04/09 17:18:50;;;;;;;4.75;1.73;;;;;;;7.02;49.39;101300.19;10442222;28;20095;-83
2022/04/09 17:23:51;;;;;;;4.38;1.35;;;;;;;6.87;50.58;101310.44;10410445;28;20088;-83
2022/04/09 17:28:52;;;;;;;5.63;1.50;;;;;;;6.71;50.32;101324.06;10411561;28;20029;-84
2022/04/09 17:33:52;;;;;;;5.30;2.85;;;;;;;6.01;59.85;101358.09;10416792;28;20056;-82
2022/04/09 17:38:53;;;;;;;6.10;2.30;;;;;;;5.44;63.71;101382.34;10458092;28;20056;-81
2022/04/09 17:43:54;;;;;;;5.93;2.92;;;;;;;5.02;65.54;101373.97;10435264;28;20076;-81
2022/04/09 17:48:54;;;;;;;4.03;2.30;;;;;;;4.74;66.91;101400.31;10441606;28;21659;-82
2022/04/09 17:53:55;;;;;;;5.75;4.53;;;;;;;4.64;65.82;101396.06;10409906;28;20060;-82
2022/04/09 17:58:55;;;;;;;8.07;2.75;;;;;;;4.53;66.18;101389.13;10431463;28;20092;-81
2022/04/09 18:03:57;;;;;;;5.05;2.50;;;;;;;4.51;66.81;101377.72;10413015;28;20068;-81
2022/04/09 18:08:57;;;;;;;4.43;3.00;;;;;;;4.37;66.31;101402.53;10431721;28;20461;-81
2022/04/09 18:13:58;;;;;;;6.63;2.15;;;;;;;3.98;67.12;101394.22;10407192;28;20324;-81
2022/04/09 18:18:58;;;;;;;2.90;1.70;;;;;;;3.76;66.87;101400.19;10433991;28;20060;-81
2022/04/09 18:23:59;;;;;;;7.10;2.35;;;;;;;3.44;67.07;101406.16;10418382;28;20397;-82
2022/04/09 18:28:59;;;;;;;7.05;1.73;;;;;;;3.28;67.19;101414.31;10421871;28;20123;-81
2022/04/09 18:34:02;;;;;;;7.28;2.30;;;;;;;3.01;68.34;101421.50;10421559;28;20044;-81
2022/04/09 18:39:03;;;;;;;4.22;2.35;;;;;;;2.86;68.62;101431.38;10425297;28;20033;-82
2022/04/09 18:44:04;;;;;;;3.83;2.10;;;;;;;2.75;68.58;101429.53;10477964;28;20048;-81
2022/04/09 18:49:05;;;;;;;9.40;3.58;;;;;;;2.59;69.33;101441.09;10432517;28;20037;-82
2022/04/09 18:54:05;;;;;;;3.92;1.85;;;;;;;2.52;69.85;101453.34;10447079;28;20037;-81
2022/04/09 18:59:06;;;;;;;4.55;1.95;;;;;;;2.41;70.57;101450.72;10429695;28;20021;-81
2022/04/09 19:04:07;;;;;;;4.45;2.17;;;;;;;2.29;71.33;101458.25;10399215;28;20098;-81
2022/04/09 19:09:08;;;;;;;4.18;1.98;;;;;;;2.14;72.15;101473.28;10431137;28;20079;-81
2022/04/09 19:14:09;;;;;;;6.22;2.53;;;;;;;2.05;73.13;101481.06;10413657;28;20064;-81
2022/04/09 19:19:09;;;;;;;6.03;3.27;;;;;;;1.85;73.44;101486.09;10426662;28;20469;-80
2022/04/09 19:24:10;;;;;;;9.25;2.88;;;;;;;1.69;75.04;101500.13;10442518;28;20025;-81
2022/04/09 19:29:11;;;;;;;6.47;2.90;;;;;;;1.57;75.35;101497.34;10439857;28;20087;-80
2022/04/09 19:34:11;;;;;;;5.10;2.58;;;;;;;1.49;74.83;101497.38;10424865;28;20036;-81
2022/04/09 19:39:12;;;;;;;8.77;3.28;;;;;;;1.32;76.40;101501.84;10436570;28;20052;-80
2022/04/09 19:44:13;;;;;;;5.40;2.55;;;;;;;1.18;76.88;101500.53;10427531;28;20079;-81
2022/04/09 19:49:14;;;;;;;5.45;3.08;;;;;;;1.13;77.56;101496.63;10433481;28;20691;-80
2022/04/09 19:54:14;;;;;;;6.25;4.22;;;;;;;1.07;78.34;101512.38;10424211;28;20033;-80
2022/04/09 19:59:15;;;;;;;5.82;3.30;;;;;;;1.03;78.93;101518.00;10427525;28;20033;-81
2022/04/09 20:04:22;;;;;;;6.55;3.20;;;;;;;1.01;78.45;101520.44;10422636;28;20384;-80
2022/04/09 20:09:22;;;;;;;7.13;3.90;;;;;;;1.04;79.08;101524.09;10409956;28;20045;-81
2022/04/09 20:14:23;;;;;;;7.40;3.45;;;;;;;1.04;79.34;101532.72;10443653;28;20544;-81
2022/04/09 20:19:23;;;;;;;11.45;3.97;;;;;;;0.94;79.07;101535.16;10423847;28;20507;-81
2022/04/09 20:24:24;;;;;;;7.05;3.33;;;;;;;0.88;79.66;101535.50;10402286;28;20037;-81
2022/04/09 20:29:24;;;;;;;7.32;2.92;;;;;;;0.84;80.11;101535.94;10422152;28;20492;-81
2022/04/09 20:34:25;;;;;;;4.78;2.65;;;;;;;0.82;79.95;101551.25;10404447;28;20037;-82
2022/04/09 20:39:26;;;;;;;13.93;3.10;;;;;;;0.78;80.14;101550.81;10399861;28;20120;-80
2022/04/09 20:44:27;;;;;;;5.00;2.78;;;;;;;0.71;80.33;101552.78;10406390;28;20499;-80
2022/04/09 20:49:28;;;;;;;5.10;2.78;;;;;;;0.54;81.47;101551.13;10427694;28;20026;-81
2022/04/09 20:54:30;;;;;;;5.22;2.40;;;;;;;0.33;81.43;101559.28;10400770;28;20112;-81
2022/04/09 20:59:34;;;;;;;5.25;3.08;;;;;;;0.31;82.48;101560.78;10429997;28;20478;-81
2022/04/09 21:04:34;;;;;;;4.85;3.08;;;;;;;0.35;82.48;101557.78;10438224;28;20040;-81
2022/04/09 21:09:35;;;;;;;6.00;3.85;;;;;;;0.23;83.03;101566.09;10421017;28;20493;-81
2022/04/09 21:14:36;;;;;;;9.73;4.25;;;;;;;0.07;83.01;101567.88;10417290;28;20022;-81
2022/04/09 21:19:37;;;;;;;9.02;3.97;;;;;;;-0.06;83.23;101570.88;10431713;28;20057;-80
2022/04/09 21:24:38;;;;;;;12.67;2.87;;;;;;;-0.14;84.72;101582.06;10414707;28;20018;-80
2022/04/09 21:29:38;;;;;;;6.95;3.65;;;;;;;-0.13;84.93;101589.03;10404250;28;20068;-80
2022/04/09 21:34:39;;;;;;;6.63;3.33;;;;;;;-0.26;84.95;101587.78;10433892;28;20044;-81
2022/04/09 21:39:39;;;;;;;11.95;6.03;;;;;;;-0.08;85.43;101592.97;10423963;28;20028;-80
2022/04/09 21:44:40;;;;;;;9.45;3.88;;;;;;;-0.22;84.85;101595.06;10435919;28;20081;-80
2022/04/09 21:49:41;;;;;;;8.43;3.42;;;;;;;-0.37;85.78;101603.78;10419614;28;20033;-81
2022/04/09 21:54:41;;;;;;;8.02;4.93;;;;;;;-0.48;86.08;101613.84;10400027;28;20050;-80
2022/04/09 21:59:42;;;;;;;7.05;4.85;;;;;;;-0.64;86.96;101613.91;10414210;28;20065;-81
2022/04/09 22:04:42;;;;;;;11.60;6.53;;;;;;;-0.72;86.85;101621.59;10399345;28;20056;-80
2022/04/09 22:09:43;;;;;;;8.40;4.93;;;;;;;-0.72;87.24;101625.03;10431188;28;20032;-80
2022/04/09 22:14:43;;;;;;;8.95;5.38;;;;;;;-0.93;87.72;101629.75;10440877;28;20425;-81
2022/04/09 22:19:44;;;;;;;9.27;4.35;;;;;;;-0.98;87.54;101627.44;10417005;28;20084;-80
2022/04/09 22:24:44;;;;;;;7.82;4.53;;;;;;;-1.00;88.79;101628.94;10403324;28;20615;-81
2022/04/09 22:29:44;;;;;;;8.93;5.25;;;;;;;-1.11;88.71;101638.06;10426130;28;20156;-80
2022/04/09 22:34:45;;;;;;;11.48;6.28;;;;;;;-1.19;88.80;101629.56;10430258;28;20045;-81
2022/04/09 22:39:45;;;;;;;7.97;4.35;;;;;;;-1.28;89.10;101629.47;10402428;28;20105;-81
2022/04/09 22:44:46;;;;;;;9.07;4.78;;;;;;;-1.37;88.90;101631.97;10419863;28;20045;-80
2022/04/09 22:49:46;;;;;;;11.43;4.93;;;;;;;-1.50;89.41;101640.00;10417515;28;20037;-80
2022/04/09 22:54:47;;;;;;;7.88;4.75;;;;;;;-1.61;90.19;101649.88;10419710;28;20439;-80
2022/04/09 22:59:48;;;;;;;11.77;5.35;;;;;;;-1.54;90.87;101655.81;10413151;28;20053;-80
2022/04/09 23:04:49;;;;;;;12.52;6.95;;;;;;;-1.57;90.57;101654.59;10404385;28;20536;-80
2022/04/09 23:09:49;;;;;;;13.38;6.97;;;;;;;-1.60;90.72;101662.84;10426162;28;20076;-80
2022/04/09 23:14:50;;;;;;;9.40;5.13;;;;;;;-1.67;91.16;101668.06;10432786;28;20075;-80